Time;durP1;ratioP1;P1;durP2;ratioP2;P2;SDS_P1;SDS_P2;PMS_P1;PMS_P2;Temp;Humidity;BMP_temperature;BMP_pressure;BME280_temperature;BME280_humidity;BME280_pressure;Samples;Min_cycle;Max_cycle;Signal;HPM_P1;HPM_P2
2023/01/24 00:03:19;;;;;;;14.23;11.80;;;;;;;;;;10086533;28;20075;-64
2023/01/24 00:08:14;;;;;;;12.35;11.25;;;;;;;;;;10109029;28;20144;-64
2023/01/24 00:13:07;;;;;;;14.05;11.57;;;;;;;;;;10107094;28;20050;-65
2023/01/24 00:18:01;;;;;;;12.43;10.90;;;;;;;;;;10099197;28;20517;-65
2023/01/24 00:22:55;;;;;;;12.05;10.75;;;;;;;;;;10088874;28;20034;-65
2023/01/24 00:27:49;;;;;;;12.95;10.98;;;;;;;;;;10094549;28;20067;-65
2023/01/24 00:32:44;;;;;;;15.63;10.68;;;;;;;;;;10102553;28;20061;-65
2023/01/24 00:37:38;;;;;;;12.20;10.30;;;;;;;;;;10105763;28;20528;-64
2023/01/24 00:42:32;;;;;;;13.23;11.32;;;;;;;;;;10097020;28;20113;-64
2023/01/24 00:47:26;;;;;;;15.25;13.85;;;;;;;;;;10106878;28;20067;-64
2023/01/24 00:52:19;;;;;;;18.13;14.43;;;;;;;;;;10100665;28;20144;-64
2023/01/24 00:57:13;;;;;;;15.93;14.10;;;;;;;;;;10106180;28;20510;-64
2023/01/24 01:02:07;;;;;;;17.15;13.85;;;;;;;;;;10072341;28;20061;-65
2023/01/24 01:07:01;;;;;;;15.88;14.20;;;;;;;;;;10123744;28;20045;-64
2023/01/24 01:11:55;;;;;;;17.23;13.23;;;;;;;;;;10100409;28;20175;-64
2023/01/24 01:16:49;;;;;;;15.82;12.05;;;;;;;;;;10071699;28;20062;-64
2023/01/24 01:21:44;;;;;;;13.90;11.48;;;;;;;;;;10102395;28;20049;-64
2023/01/24 01:26:37;;;;;;;17.42;12.45;;;;;;;;;;10092967;28;20524;-64
2023/01/24 01:31:30;;;;;;;17.42;15.68;;;;;;;;;;10098559;28;20040;-63
2023/01/24 01:36:26;;;;;;;20.52;15.80;;;;;;;;;;10110506;28;20525;-64
2023/01/24 01:41:20;;;;;;;21.80;17.65;;;;;;;;;;10122858;28;20063;-64
2023/01/24 01:46:20;;;;;;;18.77;15.80;;;;;;;;;;10124123;28;20053;-64
2023/01/24 01:51:47;;;;;;;19.40;14.88;;;;;;;;;;10102757;28;20119;-64
2023/01/24 01:56:50;;;;;;;19.05;15.13;;;;;;;;;;10072408;28;20049;-64
2023/01/24 02:01:45;;;;;;;16.90;15.23;;;;;;;;;;10115801;28;20060;-64
2023/01/24 02:06:51;;;;;;;17.73;14.93;;;;;;;;;;10092890;28;20060;-64
2023/01/24 02:11:45;;;;;;;14.82;13.15;;;;;;;;;;10080634;28;20505;-64
2023/01/24 02:16:38;;;;;;;16.98;13.48;;;;;;;;;;10082090;28;20045;-63
2023/01/24 02:21:33;;;;;;;14.95;12.23;;;;;;;;;;10114967;28;20134;-64
2023/01/24 02:26:28;;;;;;;18.00;13.25;;;;;;;;;;10081316;28;20053;-63
2023/01/24 02:31:23;;;;;;;20.48;15.65;;;;;;;;;;10088485;28;20453;-63
2023/01/24 02:36:32;;;;;;;22.65;16.02;;;;;;;;;;10112129;28;20484;-63
2023/01/24 02:41:30;;;;;;;20.48;17.42;;;;;;;;;;10090303;28;20125;-63
2023/01/24 02:46:24;;;;;;;23.08;18.45;;;;;;;;;;10093626;28;20053;-64
2023/01/24 03:01:43;;;;;;;17.95;15.63;;;;;;;;;;10083427;28;20045;-64
2023/01/24 03:06:39;;;;;;;18.13;16.27;;;;;;;;;;10075167;28;20092;-64
2023/01/24 03:11:32;;;;;;;18.85;16.55;;;;;;;;;;10116885;28;20139;-64
2023/01/24 03:42:49;;;;;;;13.00;11.73;;;;;;;;;;10129623;28;20086;-64
2023/01/24 03:47:54;;;;;;;13.75;12.45;;;;;;;;;;10085293;28;20057;-64
2023/01/24 03:52:50;;;;;;;13.75;12.27;;;;;;;;;;10096063;28;20088;-64
2023/01/24 03:57:42;;;;;;;13.77;12.43;;;;;;;;;;10109787;28;20144;-64
2023/01/24 04:02:39;;;;;;;14.30;12.80;;;;;;;;;;10097615;28;20057;-64
2023/01/24 04:07:32;;;;;;;19.50;12.25;;;;;;;;;;10091199;28;20049;-64
2023/01/24 04:12:29;;;;;;;15.35;13.70;;;;;;;;;;10091340;28;20088;-64
2023/01/24 04:17:25;;;;;;;14.02;12.63;;;;;;;;;;10092005;28;20050;-64
2023/01/24 04:22:18;;;;;;;12.68;11.38;;;;;;;;;;10110391;28;20049;-64
2023/01/24 04:27:13;;;;;;;13.48;11.60;;;;;;;;;;10120108;28;20049;-63
2023/01/24 04:32:28;;;;;;;14.52;12.38;;;;;;;;;;10099805;28;20414;-64
2023/01/24 04:37:31;;;;;;;16.05;14.38;;;;;;;;;;10131181;28;20049;-63
2023/01/24 04:42:25;;;;;;;13.70;12.30;;;;;;;;;;10106975;28;20069;-64
2023/01/24 04:47:19;;;;;;;14.65;12.23;;;;;;;;;;10102533;28;20056;-64
2023/01/24 04:52:13;;;;;;;14.65;12.98;;;;;;;;;;10105185;28;20140;-63
2023/01/24 04:57:19;;;;;;;13.35;12.02;;;;;;;;;;10089927;28;20059;-63
2023/01/24 05:02:12;;;;;;;20.52;12.93;;;;;;;;;;10093303;28;20087;-63
2023/01/24 05:07:09;;;;;;;13.80;11.90;;;;;;;;;;10097417;28;20056;-63
2023/01/24 05:12:04;;;;;;;13.98;11.68;;;;;;;;;;10104000;28;20523;-63
2023/01/24 05:16:58;;;;;;;13.45;12.23;;;;;;;;;;10101557;28;20453;-63
2023/01/24 05:21:52;;;;;;;12.27;10.85;;;;;;;;;;10099734;28;20525;-64
2023/01/24 05:26:46;;;;;;;15.05;13.45;;;;;;;;;;10118130;28;20049;-64
2023/01/24 05:31:45;;;;;;;14.02;11.80;;;;;;;;;;10094568;28;20072;-64
2023/01/24 05:36:39;;;;;;;16.48;12.63;;;;;;;;;;10096525;28;20514;-64
2023/01/24 05:41:32;;;;;;;14.32;11.95;;;;;;;;;;10099927;28;20468;-64
2023/01/24 05:46:29;;;;;;;15.32;10.85;;;;;;;;;;10109619;28;20469;-64
2023/01/24 05:51:34;;;;;;;18.35;12.05;;;;;;;;;;10097023;28;20124;-64
2023/01/24 05:56:29;;;;;;;18.08;10.88;;;;;;;;;;10097973;28;20059;-64
2023/01/24 06:01:23;;;;;;;13.52;12.23;;;;;;;;;;10094877;28;20045;-64
2023/01/24 06:06:21;;;;;;;11.68;9.95;;;;;;;;;;10096262;28;20041;-64
2023/01/24 06:11:20;;;;;;;12.38;10.65;;;;;;;;;;10088206;28;20386;-64
2023/01/24 06:16:38;;;;;;;11.75;10.57;;;;;;;;;;10082241;28;20719;-62
2023/01/24 06:21:47;;;;;;;12.77;11.33;;;;;;;;;;10094665;28;20049;-64
2023/01/24 06:26:49;;;;;;;15.45;10.70;;;;;;;;;;10124097;28;20040;-64
2023/01/24 06:32:04;;;;;;;11.38;10.27;;;;;;;;;;10128497;28;20055;-63
2023/01/24 06:37:15;;;;;;;12.32;10.50;;;;;;;;;;10120652;28;20410;-64
2023/01/24 06:42:10;;;;;;;15.65;12.13;;;;;;;;;;10086046;28;20564;-64
2023/01/24 06:47:04;;;;;;;15.27;13.75;;;;;;;;;;10083293;28;20088;-64
2023/01/24 06:51:57;;;;;;;18.85;12.57;;;;;;;;;;10113483;28;20150;-64
2023/01/24 06:56:50;;;;;;;25.30;19.75;;;;;;;;;;10116376;28;20044;-64
2023/01/24 07:01:43;;;;;;;14.38;12.70;;;;;;;;;;10106404;28;20060;-64
2023/01/24 07:06:41;;;;;;;18.08;14.27;;;;;;;;;;10102501;28;20045;-64
2023/01/24 07:11:35;;;;;;;13.50;10.05;;;;;;;;;;10079833;28;20056;-64
2023/01/24 07:16:28;;;;;;;13.13;10.55;;;;;;;;;;10090835;28;20046;-64
2023/01/24 07:21:24;;;;;;;13.85;10.57;;;;;;;;;;10076855;28;20506;-64
2023/01/24 07:26:19;;;;;;;18.38;13.15;;;;;;;;;;10090758;28;20442;-64
2023/01/24 07:31:13;;;;;;;13.75;11.43;;;;;;;;;;10094615;28;20568;-63
2023/01/24 07:36:15;;;;;;;13.45;11.23;;;;;;;;;;10088347;28;20395;-64
2023/01/24 07:41:10;;;;;;;14.13;11.18;;;;;;;;;;10089613;28;20053;-65
2023/01/24 07:46:04;;;;;;;12.50;10.30;;;;;;;;;;10080234;28;20085;-64
2023/01/24 07:50:59;;;;;;;15.90;9.93;;;;;;;;;;10120209;28;20079;-64
2023/01/24 07:55:54;;;;;;;19.30;13.15;;;;;;;;;;10084903;28;20073;-65
2023/01/24 08:00:55;;;;;;;15.75;14.15;;;;;;;;;;10107331;28;20049;-69
2023/01/24 08:05:49;;;;;;;15.57;13.90;;;;;;;;;;10108336;28;20076;-64
2023/01/24 08:10:43;;;;;;;16.17;13.25;;;;;;;;;;10109686;28;20056;-64
2023/01/24 08:15:37;;;;;;;18.90;16.90;;;;;;;;;;10133730;28;20060;-64
2023/01/24 08:20:31;;;;;;;19.48;14.45;;;;;;;;;;10129821;28;20052;-64
2023/01/24 08:25:26;;;;;;;16.00;13.38;;;;;;;;;;10092535;28;20053;-64
2023/01/24 08:30:22;;;;;;;17.95;12.20;;;;;;;;;;10110050;28;20036;-65
2023/01/24 08:35:16;;;;;;;9.15;8.20;;;;;;;;;;10105649;28;20096;-64
2023/01/24 08:40:12;;;;;;;9.18;8.18;;;;;;;;;;10087072;28;20057;-64
2023/01/24 08:45:06;;;;;;;11.52;8.02;;;;;;;;;;10098805;28;20059;-65
2023/01/24 08:50:00;;;;;;;10.73;6.55;;;;;;;;;;10119412;28;20054;-64
2023/01/24 08:54:54;;;;;;;8.20;6.85;;;;;;;;;;10128719;28;20052;-64
2023/01/24 08:59:48;;;;;;;12.00;7.65;;;;;;;;;;10124984;28;20037;-64
2023/01/24 09:04:42;;;;;;;10.90;8.38;;;;;;;;;;10107052;28;20053;-64
2023/01/24 09:09:39;;;;;;;10.82;7.78;;;;;;;;;;10115741;28;20036;-64
2023/01/24 09:14:33;;;;;;;8.80;6.85;;;;;;;;;;10112070;28;20135;-64
2023/01/24 09:19:27;;;;;;;9.32;6.63;;;;;;;;;;10117821;28;20041;-64
2023/01/24 09:24:21;;;;;;;8.77;6.13;;;;;;;;;;10117740;28;20052;-64
2023/01/24 09:29:15;;;;;;;7.38;6.38;;;;;;;;;;10112177;28;20456;-65
2023/01/24 09:34:13;;;;;;;11.20;7.97;;;;;;;;;;10110865;28;20589;-64
2023/01/24 09:39:06;;;;;;;7.22;6.20;;;;;;;;;;10100121;28;20124;-65
2023/01/24 09:44:20;;;;;;;9.48;8.18;;;;;;;;;;10073806;28;20053;-64
2023/01/24 09:49:33;;;;;;;9.27;8.07;;;;;;;;;;10103979;28;20057;-65
2023/01/24 09:54:32;;;;;;;9.80;6.85;;;;;;;;;;10113149;28;20044;-67
2023/01/24 09:59:49;;;;;;;10.20;8.10;;;;;;;;;;10107320;28;20060;-69
2023/01/24 10:04:44;;;;;;;9.50;6.88;;;;;;;;;;10117814;28;20056;-69
2023/01/24 10:09:43;;;;;;;11.90;7.22;;;;;;;;;;10121493;28;20055;-66
2023/01/24 10:14:52;;;;;;;8.38;7.53;;;;;;;;;;10116079;28;20071;-66
2023/01/24 10:20:06;;;;;;;10.32;7.45;;;;;;;;;;10130699;28;20493;-65
2023/01/24 10:25:24;;;;;;;11.43;8.45;;;;;;;;;;10121019;28;20071;-66
2023/01/24 10:30:23;;;;;;;10.90;7.00;;;;;;;;;;10108436;28;20072;-65
2023/01/24 10:35:23;;;;;;;10.18;6.28;;;;;;;;;;10089963;28;20060;-66
2023/01/24 10:40:18;;;;;;;7.32;5.50;;;;;;;;;;10088238;28;20053;-64
2023/01/24 10:45:41;;;;;;;6.75;5.70;;;;;;;;;;10114840;28;20062;-64
2023/01/24 10:50:41;;;;;;;5.88;4.97;;;;;;;;;;10083391;28;20058;-65
2023/01/24 10:55:38;;;;;;;8.15;5.63;;;;;;;;;;10098723;28;20063;-65
2023/01/24 11:00:36;;;;;;;5.88;5.00;;;;;;;;;;10115646;28;20141;-65
2023/01/24 11:05:49;;;;;;;8.70;6.60;;;;;;;;;;10091655;28;20052;-66
2023/01/24 11:10:43;;;;;;;8.02;5.57;;;;;;;;;;10112567;28;20048;-66
2023/01/24 11:15:37;;;;;;;6.85;5.68;;;;;;;;;;10088667;28;20440;-66
2023/01/24 11:20:35;;;;;;;7.18;5.53;;;;;;;;;;10083427;28;20041;-66
2023/01/24 11:25:34;;;;;;;7.45;5.63;;;;;;;;;;10089819;28;20053;-66
2023/01/24 11:30:33;;;;;;;6.40;5.68;;;;;;;;;;10088463;28;20045;-66
2023/01/24 11:35:35;;;;;;;7.22;5.30;;;;;;;;;;10113751;28;20053;-67
2023/01/24 11:40:53;;;;;;;6.47;4.60;;;;;;;;;;10102764;28;20048;-65
2023/01/24 11:46:18;;;;;;;6.70;4.65;;;;;;;;;;10131295;28;20052;-66
2023/01/24 11:51:26;;;;;;;7.47;4.95;;;;;;;;;;10118886;28;20131;-66
2023/01/24 11:56:30;;;;;;;8.30;5.18;;;;;;;;;;10110256;28;20052;-66
2023/01/24 12:01:37;;;;;;;6.72;4.65;;;;;;;;;;10123972;28;20067;-66
2023/01/24 12:06:37;;;;;;;6.28;4.75;;;;;;;;;;10117635;28;20048;-65
2023/01/24 12:12:08;;;;;;;11.10;5.50;;;;;;;;;;10122322;28;20115;-65
2023/01/24 12:17:25;;;;;;;8.45;4.65;;;;;;;;;;10087224;28;20057;-65
2023/01/24 12:22:24;;;;;;;9.38;5.78;;;;;;;;;;10099484;28;20083;-65
2023/01/24 12:27:23;;;;;;;8.85;5.82;;;;;;;;;;10103626;28;20140;-65
2023/01/24 12:32:36;;;;;;;6.85;5.28;;;;;;;;;;10100809;28;20045;-65
2023/01/24 12:37:48;;;;;;;6.57;4.68;;;;;;;;;;10130794;28;20115;-65
2023/01/24 12:42:55;;;;;;;8.00;5.60;;;;;;;;;;10101336;28;20048;-65
2023/01/24 12:47:52;;;;;;;8.80;6.55;;;;;;;;;;10094315;28;20049;-66
2023/01/24 12:52:51;;;;;;;7.00;5.30;;;;;;;;;;10097721;28;20579;-65
2023/01/24 12:57:48;;;;;;;;;;;;;;;;;;10101715;28;20413;-66
2023/01/24 13:02:52;;;;;;;10.23;7.78;;;;;;;;;;10072752;28;19921;-66
2023/01/24 13:07:51;;;;;;;12.23;9.48;;;;;;;;;;10119337;28;20106;-65
2023/01/24 13:12:45;;;;;;;8.15;6.60;;;;;;;;;;10070132;28;20129;-65
2023/01/24 13:17:44;;;;;;;12.10;7.30;;;;;;;;;;10102369;28;20067;-66
2023/01/24 13:22:48;;;;;;;10.53;6.90;;;;;;;;;;10104966;28;20049;-65
2023/01/24 13:27:56;;;;;;;11.98;8.80;;;;;;;;;;10077997;28;20042;-65
2023/01/24 13:32:50;;;;;;;15.75;10.43;;;;;;;;;;10107108;28;20075;-66
2023/01/24 13:37:52;;;;;;;17.48;10.40;;;;;;;;;;10088180;28;20498;-65
2023/01/24 13:42:46;;;;;;;13.95;9.10;;;;;;;;;;10110363;28;20037;-65
2023/01/24 13:47:40;;;;;;;12.13;9.77;;;;;;;;;;10101194;28;20421;-65
2023/01/24 13:52:36;;;;;;;10.65;7.18;;;;;;;;;;10101000;28;20083;-65
2023/01/24 13:57:35;;;;;;;9.30;8.00;;;;;;;;;;10131573;28;20079;-65
2023/01/24 14:02:30;;;;;;;11.23;6.40;;;;;;;;;;10074750;28;20088;-65
2023/01/24 14:07:36;;;;;;;9.10;6.57;;;;;;;;;;10093878;28;20379;-65
2023/01/24 14:12:33;;;;;;;11.18;7.60;;;;;;;;;;10104570;28;20048;-65
2023/01/24 14:17:48;;;;;;;10.95;6.97;;;;;;;;;;10098772;28;20076;-65
2023/01/24 14:22:44;;;;;;;10.57;7.90;;;;;;;;;;10066465;28;20171;-65
2023/01/24 14:27:46;;;;;;;10.13;7.82;;;;;;;;;;10103462;28;20139;-65
2023/01/24 14:32:45;;;;;;;8.68;6.32;;;;;;;;;;10113669;28;20048;-64
2023/01/24 14:37:42;;;;;;;9.15;7.63;;;;;;;;;;10068650;28;20072;-65
2023/01/24 14:42:36;;;;;;;7.72;6.07;;;;;;;;;;10074504;28;20127;-64
2023/01/24 14:47:29;;;;;;;6.68;4.82;;;;;;;;;;10103576;28;20414;-65
2023/01/24 14:52:22;;;;;;;10.00;6.78;;;;;;;;;;10096920;28;20399;-65
2023/01/24 14:57:42;;;;;;;10.02;7.65;;;;;;;;;;10085781;28;20065;-66
2023/01/24 15:02:36;;;;;;;9.18;7.35;;;;;;;;;;10087853;28;20048;-65
2023/01/24 15:07:30;;;;;;;8.02;7.07;;;;;;;;;;10106110;28;20492;-66
2023/01/24 15:12:33;;;;;;;8.85;7.68;;;;;;;;;;10097039;28;20489;-66
2023/01/24 15:17:30;;;;;;;10.13;7.55;;;;;;;;;;10122880;28;20477;-64
2023/01/24 15:22:31;;;;;;;11.02;7.70;;;;;;;;;;10102105;28;20068;-65
2023/01/24 15:27:27;;;;;;;8.95;6.82;;;;;;;;;;10129619;28;20044;-66
2023/01/24 15:32:30;;;;;;;9.30;6.72;;;;;;;;;;10112459;28;20801;-65
2023/01/24 15:37:23;;;;;;;14.88;8.27;;;;;;;;;;10113398;28;20461;-64
2023/01/24 15:48:06;;;;;;;6.13;5.38;;;;;;;;;;10074837;28;20053;-64
2023/01/24 15:53:12;;;;;;;6.97;5.90;;;;;;;;;;10118058;28;20086;-65
2023/01/24 15:58:08;;;;;;;6.53;5.93;;;;;;;;;;10104113;28;20122;-65
2023/01/24 16:03:03;;;;;;;7.68;6.07;;;;;;;;;;10106629;28;20065;-65
2023/01/24 16:07:56;;;;;;;7.38;6.07;;;;;;;;;;10096562;28;20071;-65
2023/01/24 16:12:51;;;;;;;11.45;9.57;;;;;;;;;;10088004;28;20048;-65
2023/01/24 16:17:44;;;;;;;7.65;6.90;;;;;;;;;;10092639;28;20562;-65
2023/01/24 16:22:38;;;;;;;7.88;6.88;;;;;;;;;;10070914;28;20095;-65
2023/01/24 16:27:33;;;;;;;8.10;6.63;;;;;;;;;;10119800;28;20087;-65
2023/01/24 16:32:28;;;;;;;9.25;6.80;;;;;;;;;;10096051;28;20504;-65
2023/01/24 16:37:22;;;;;;;11.05;7.80;;;;;;;;;;10083623;28;20498;-65
2023/01/24 16:42:17;;;;;;;13.43;9.75;;;;;;;;;;10086732;28;20531;-65
2023/01/24 16:47:10;;;;;;;18.65;12.95;;;;;;;;;;10083861;28;20053;-65
2023/01/24 16:52:04;;;;;;;21.92;13.40;;;;;;;;;;10088383;28;20056;-65
2023/01/24 16:57:11;;;;;;;23.83;16.40;;;;;;;;;;10087834;28;20423;-65
2023/01/24 17:02:05;;;;;;;24.05;16.70;;;;;;;;;;10107749;28;20053;-65
2023/01/24 17:07:04;;;;;;;26.85;17.92;;;;;;;;;;10102092;28;20131;-65
2023/01/24 17:11:57;;;;;;;66.20;39.67;;;;;;;;;;10135536;28;20059;-65
2023/01/24 17:17:06;;;;;;;24.17;18.50;;;;;;;;;;10109645;28;20060;-65
2023/01/24 17:22:00;;;;;;;53.50;30.88;;;;;;;;;;10113307;28;20064;-65
2023/01/24 17:26:53;;;;;;;27.92;18.95;;;;;;;;;;10106703;28;20051;-66
2023/01/24 17:31:47;;;;;;;28.70;20.33;;;;;;;;;;10101259;28;20132;-66
2023/01/24 17:36:40;;;;;;;33.17;21.92;;;;;;;;;;10096527;28;20058;-66
2023/01/24 17:41:35;;;;;;;38.38;24.70;;;;;;;;;;10080631;28;20061;-65
2023/01/24 17:46:29;;;;;;;23.90;19.95;;;;;;;;;;10084506;28;20128;-66
2023/01/24 17:51:23;;;;;;;29.67;21.35;;;;;;;;;;10106995;28;20490;-65
2023/01/24 17:56:20;;;;;;;27.88;19.40;;;;;;;;;;10068762;28;20053;-65
2023/01/24 18:01:14;;;;;;;28.75;20.17;;;;;;;;;;10083520;28;20131;-64
2023/01/24 18:06:10;;;;;;;23.38;17.92;;;;;;;;;;10089488;28;20136;-65
2023/01/24 18:11:09;;;;;;;23.27;17.00;;;;;;;;;;10082171;28;20064;-64
2023/01/24 18:16:06;;;;;;;21.80;17.42;;;;;;;;;;10073506;28;20057;-65
2023/01/24 18:21:00;;;;;;;33.85;24.45;;;;;;;;;;10078330;28;20044;-65
2023/01/24 18:25:58;;;;;;;37.65;26.75;;;;;;;;;;10089037;28;20064;-67
2023/01/24 18:30:52;;;;;;;36.40;28.60;;;;;;;;;;10087069;28;20049;-65
2023/01/24 18:35:46;;;;;;;48.08;35.55;;;;;;;;;;10070156;28;20053;-65
2023/01/24 18:40:40;;;;;;;54.25;39.35;;;;;;;;;;10067683;28;20053;-65
2023/01/24 18:45:33;;;;;;;46.50;36.28;;;;;;;;;;10098076;28;20398;-64
2023/01/24 18:50:28;;;;;;;48.35;36.88;;;;;;;;;;10077595;28;20057;-65
2023/01/24 18:55:22;;;;;;;55.70;36.95;;;;;;;;;;10093944;28;20032;-64
2023/01/24 19:00:18;;;;;;;44.88;35.40;;;;;;;;;;10092062;28;20048;-64
2023/01/24 19:05:13;;;;;;;64.05;45.08;;;;;;;;;;10090823;28;20066;-65
2023/01/24 19:10:08;;;;;;;60.50;40.42;;;;;;;;;;10094807;28;20049;-65
2023/01/24 19:15:01;;;;;;;51.05;37.42;;;;;;;;;;10092710;28;20123;-65
2023/01/24 19:19:55;;;;;;;49.50;34.35;;;;;;;;;;10091512;28;20041;-67
2023/01/24 19:24:49;;;;;;;46.65;36.30;;;;;;;;;;10083833;28;20128;-63
2023/01/24 19:29:43;;;;;;;56.03;41.63;;;;;;;;;;10094189;28;20052;-66
2023/01/24 19:34:36;;;;;;;51.10;36.60;;;;;;;;;;10090584;28;20056;-64
2023/01/24 19:39:29;;;;;;;50.35;36.08;;;;;;;;;;10096260;28;20140;-64
2023/01/24 19:44:24;;;;;;;45.33;34.22;;;;;;;;;;10092163;28;20053;-63
2023/01/24 19:49:19;;;;;;;42.17;34.10;;;;;;;;;;10101535;28;20395;-63
2023/01/24 19:54:13;;;;;;;52.33;39.13;;;;;;;;;;10102750;28;20049;-63
2023/01/24 19:59:06;;;;;;;70.85;52.13;;;;;;;;;;10103661;28;20460;-63
2023/01/24 20:04:00;;;;;;;75.30;55.53;;;;;;;;;;10098999;28;20052;-62
2023/01/24 20:09:14;;;;;;;47.25;34.13;;;;;;;;;;10104483;28;20432;-66
2023/01/24 20:14:08;;;;;;;38.17;30.05;;;;;;;;;;10102879;28;20061;-63
2023/01/24 20:19:03;;;;;;;40.30;30.98;;;;;;;;;;10106899;28;20110;-62
2023/01/24 20:24:00;;;;;;;39.42;28.77;;;;;;;;;;10107938;28;20037;-63
2023/01/24 20:28:53;;;;;;;31.05;25.70;;;;;;;;;;10114871;28;20118;-62
2023/01/24 20:33:48;;;;;;;43.75;33.10;;;;;;;;;;10111186;28;20057;-63
2023/01/24 20:38:41;;;;;;;38.63;29.73;;;;;;;;;;10110111;28;20056;-63
2023/01/24 20:43:38;;;;;;;36.42;28.60;;;;;;;;;;10117460;28;20045;-63
2023/01/24 20:48:32;;;;;;;27.17;23.65;;;;;;;;;;10110494;28;20403;-63
2023/01/24 20:53:25;;;;;;;31.73;24.40;;;;;;;;;;10107684;28;20466;-63
2023/01/24 20:58:20;;;;;;;25.13;21.95;;;;;;;;;;10093051;28;20053;-62
2023/01/24 21:03:13;;;;;;;36.83;28.95;;;;;;;;;;10096136;28;20041;-63
2023/01/24 21:08:07;;;;;;;38.25;33.00;;;;;;;;;;10095830;28;20457;-63
2023/01/24 21:13:01;;;;;;;43.95;33.83;;;;;;;;;;10095914;28;20405;-63
2023/01/24 21:17:55;;;;;;;42.88;34.22;;;;;;;;;;10101197;28;20120;-64
2023/01/24 21:22:50;;;;;;;46.35;35.75;;;;;;;;;;10106308;28;20049;-65
2023/01/24 21:27:50;;;;;;;34.10;29.85;;;;;;;;;;10087393;28;20132;-65
2023/01/24 21:32:44;;;;;;;39.55;30.27;;;;;;;;;;10101391;28;20076;-63
2023/01/24 21:37:39;;;;;;;32.53;25.80;;;;;;;;;;10100835;28;20060;-64
2023/01/24 21:42:33;;;;;;;24.83;19.92;;;;;;;;;;10098944;28;20032;-63
2023/01/24 21:47:28;;;;;;;29.17;22.77;;;;;;;;;;10098241;28;20460;-64
2023/01/24 21:52:22;;;;;;;29.58;23.73;;;;;;;;;;10093921;28;20059;-64
2023/01/24 22:02:30;;;;;;;44.65;34.28;;;;;;;;;;10104292;28;20413;-64
2023/01/24 22:07:25;;;;;;;30.65;23.73;;;;;;;;;;10081670;28;20509;-63
2023/01/24 22:12:18;;;;;;;66.95;46.88;;;;;;;;;;10093299;28;20061;-63
2023/01/24 22:17:18;;;;;;;112.88;61.95;;;;;;;;;;10090306;28;20452;-64
2023/01/24 22:22:11;;;;;;;41.67;27.25;;;;;;;;;;10095244;28;20438;-65
2023/01/24 22:27:17;;;;;;;16.38;13.93;;;;;;;;;;10101078;28;20060;-64
2023/01/24 22:32:13;;;;;;;13.05;10.52;;;;;;;;;;10105084;28;20049;-64
2023/01/24 22:37:27;;;;;;;18.65;16.15;;;;;;;;;;10069971;28;20045;-64
2023/01/24 22:42:21;;;;;;;14.27;12.77;;;;;;;;;;10066905;28;20046;-63
2023/01/24 22:47:16;;;;;;;12.75;11.55;;;;;;;;;;10067577;28;20536;-64
2023/01/24 22:52:10;;;;;;;12.48;11.20;;;;;;;;;;10084383;28;20159;-63
2023/01/24 22:57:05;;;;;;;13.40;10.88;;;;;;;;;;10076145;28;20061;-64
2023/01/24 23:01:59;;;;;;;15.00;12.32;;;;;;;;;;10092761;28;20040;-64
2023/01/24 23:06:52;;;;;;;13.63;11.90;;;;;;;;;;10121673;28;20107;-64
2023/01/24 23:11:46;;;;;;;13.35;12.00;;;;;;;;;;10066177;28;20061;-64
2023/01/24 23:16:55;;;;;;;13.38;11.52;;;;;;;;;;10066628;28;20053;-64
2023/01/24 23:21:49;;;;;;;14.52;11.52;;;;;;;;;;10081128;28;20060;-64
2023/01/24 23:26:43;;;;;;;13.55;11.93;;;;;;;;;;10066828;28;20057;-64
2023/01/24 23:31:37;;;;;;;14.98;11.80;;;;;;;;;;10085751;28;20166;-64
2023/01/24 23:36:32;;;;;;;14.38;11.75;;;;;;;;;;10097849;28;20049;-64
2023/01/24 23:41:26;;;;;;;15.15;11.73;;;;;;;;;;10073007;28;20099;-64
2023/01/24 23:46:20;;;;;;;19.20;13.43;;;;;;;;;;10092567;28;20064;-64
2023/01/24 23:51:14;;;;;;;11.73;10.52;;;;;;;;;;10103433;28;20122;-64
2023/01/24 23:56:09;;;;;;;14.18;10.35;;;;;;;;;;10089126;28;20079;-64
